Time;durP1;ratioP1;P1;durP2;ratioP2;P2;SDS_P1;SDS_P2;PMS_P1;PMS_P2;Temp;Humidity;BMP_temperature;BMP_pressure;BME280_temperature;BME280_humidity;BME280_pressure;Samples;Min_cycle;Max_cycle;Signal;HPM_P1;HPM_P2
2021/10/21 00:00:31;;;;;;;44.20;41.50;;;15.70;99.90;;;;;;5050334;28;20452;-81
2021/10/21 00:02:58;;;;;;;45.23;42.30;;;15.80;99.90;;;;;;5050166;28;20447;-82
2021/10/21 00:05:26;;;;;;;47.17;44.37;;;15.80;99.90;;;;;;5050237;28;20444;-82
2021/10/21 00:07:52;;;;;;;44.50;41.90;;;15.90;99.90;;;;;;5050549;28;20448;-81
2021/10/21 00:10:19;;;;;;;45.30;42.43;;;15.90;99.90;;;;;;5050347;28;20977;-82
2021/10/21 00:12:46;;;;;;;48.43;45.40;;;15.90;99.90;;;;;;5050546;28;20823;-78
2021/10/21 00:15:13;;;;;;;48.97;45.77;;;15.70;99.90;;;;;;5057062;28;20480;-79
2021/10/21 00:17:40;;;;;;;45.83;42.93;;;15.60;99.90;;;;;;5056950;28;20452;-79
2021/10/21 00:20:09;;;;;;;47.03;43.47;;;15.40;99.90;;;;;;5057547;28;20526;-80
2021/10/21 00:22:38;;;;;;;46.53;43.53;;;15.40;99.90;;;;;;5054221;28;20476;-81
2021/10/21 00:25:05;;;;;;;45.17;42.10;;;15.30;99.90;;;;;;5053752;28;20440;-80
2021/10/21 00:27:32;;;;;;;48.80;45.30;;;15.30;99.90;;;;;;5053629;28;20486;-80
2021/10/21 00:29:59;;;;;;;45.63;42.53;;;15.20;99.90;;;;;;5053907;28;20455;-80
2021/10/21 00:32:26;;;;;;;48.80;45.40;;;15.20;99.90;;;;;;5053663;28;20448;-80
2021/10/21 00:34:53;;;;;;;52.27;48.57;;;15.20;99.90;;;;;;5053458;28;20448;-79
2021/10/21 00:37:19;;;;;;;54.93;50.63;;;15.20;99.90;;;;;;5053476;28;20443;-80
2021/10/21 00:39:47;;;;;;;55.37;50.60;;;15.20;99.90;;;;;;5053574;28;20452;-79
2021/10/21 00:42:14;;;;;;;56.13;51.67;;;15.20;99.90;;;;;;5053292;28;20456;-79
2021/10/21 00:44:41;;;;;;;54.00;50.00;;;15.20;99.90;;;;;;5053447;28;20525;-80
2021/10/21 00:47:08;;;;;;;54.20;49.83;;;15.20;99.90;;;;;;5053236;28;20444;-80
2021/10/21 00:49:35;;;;;;;50.93;47.07;;;15.20;99.90;;;;;;5053309;28;20451;-78
2021/10/21 00:52:02;;;;;;;50.23;46.40;;;15.20;99.90;;;;;;5053508;28;20452;-81
2021/10/21 00:54:29;;;;;;;48.67;45.17;;;15.20;99.90;;;;;;5053339;28;20455;-81
2021/10/21 00:56:58;;;;;;;47.93;44.37;;;15.10;99.90;;;;;;5052901;28;20492;-81
2021/10/21 00:59:25;;;;;;;51.43;47.73;;;15.10;99.90;;;;;;5052920;28;20448;-79
2021/10/21 01:01:51;;;;;;;51.20;47.40;;;15.10;99.90;;;;;;5053400;28;20448;-82
2021/10/21 01:04:18;;;;;;;46.33;42.93;;;15.10;99.90;;;;;;5053179;28;20456;-82
2021/10/21 01:06:45;;;;;;;44.47;41.23;;;15.10;99.90;;;;;;5052911;28;20440;-83
2021/10/21 01:09:12;;;;;;;43.10;40.10;;;15.10;99.90;;;;;;5052805;28;21122;-83
2021/10/21 01:11:41;;;;;;;43.27;40.20;;;15.20;99.90;;;;;;5052778;28;20456;-84
2021/10/21 01:14:10;;;;;;;43.20;40.50;;;15.20;99.90;;;;;;5052810;28;20456;-85
2021/10/21 01:16:37;;;;;;;42.47;39.73;;;15.20;99.90;;;;;;5054173;28;20557;-84
2021/10/21 01:19:04;;;;;;;41.83;39.20;;;15.20;99.90;;;;;;5052812;28;20843;-84
2021/10/21 01:21:32;;;;;;;43.90;40.77;;;15.20;99.90;;;;;;5052952;28;20874;-85
2021/10/21 01:23:59;;;;;;;42.20;39.60;;;15.20;99.90;;;;;;5052294;28;20448;-80
2021/10/21 01:26:25;;;;;;;45.60;42.50;;;15.10;99.90;;;;;;5052521;28;20455;-81
2021/10/21 01:28:52;;;;;;;45.70;42.77;;;15.10;99.90;;;;;;5052487;28;20484;-78
2021/10/21 01:31:19;;;;;;;49.87;46.07;;;15.10;99.90;;;;;;5052632;28;20455;-82
2021/10/21 01:33:45;;;;;;;46.53;43.40;;;15.10;99.90;;;;;;5052397;28;20934;-82
2021/10/21 01:36:13;;;;;;;46.10;43.10;;;15.10;99.90;;;;;;5052354;28;20864;-81
2021/10/21 01:38:42;;;;;;;47.00;43.60;;;15.00;99.90;;;;;;5052223;28;20447;-81
2021/10/21 01:41:09;;;;;;;42.13;39.50;;;14.90;99.90;;;;;;5052696;28;20455;-80
2021/10/21 01:43:42;;;;;;;42.30;39.53;;;14.90;99.90;;;;;;5052717;28;20459;-81
2021/10/21 01:46:09;;;;;;;42.40;39.40;;;14.80;99.90;;;;;;5052440;28;20440;-79
2021/10/21 01:48:35;;;;;;;45.10;41.57;;;14.80;99.90;;;;;;5053096;28;20444;-76
2021/10/21 01:51:03;;;;;;;46.27;43.17;;;14.80;99.90;;;;;;5051837;28;20452;-74
2021/10/21 01:53:29;;;;;;;44.20;40.87;;;14.80;99.90;;;;;;5050453;28;20877;-74
2021/10/21 01:55:57;;;;;;;40.67;38.27;;;14.80;99.90;;;;;;5050253;28;20495;-75
2021/10/21 01:58:24;;;;;;;41.20;38.63;;;14.90;99.90;;;;;;5050514;28;20443;-74
2021/10/21 02:00:51;;;;;;;42.60;39.83;;;14.90;99.90;;;;;;5050545;28;20444;-75
2021/10/21 02:03:17;;;;;;;42.00;39.07;;;15.00;99.90;;;;;;5050705;28;20872;-74
2021/10/21 02:05:44;;;;;;;42.30;39.60;;;15.00;99.90;;;;;;5050032;28;20444;-74
2021/10/21 02:08:11;;;;;;;41.43;38.83;;;15.00;99.90;;;;;;5050537;28;20449;-74
2021/10/21 02:10:37;;;;;;;39.93;37.63;;;15.00;99.90;;;;;;5050243;28;20440;-74
2021/10/21 02:13:05;;;;;;;39.90;37.50;;;15.00;99.90;;;;;;5050273;28;20448;-74
2021/10/21 02:15:32;;;;;;;41.50;39.10;;;15.00;99.90;;;;;;5050025;28;20456;-75
2021/10/21 02:17:59;;;;;;;40.00;37.70;;;15.00;99.90;;;;;;5050171;28;20444;-74
2021/10/21 02:20:26;;;;;;;40.37;37.97;;;15.00;99.90;;;;;;5050136;28;20460;-76
2021/10/21 02:22:53;;;;;;;38.80;36.60;;;15.00;99.90;;;;;;5050025;28;20848;-76
2021/10/21 02:25:20;;;;;;;39.67;37.47;;;15.00;99.90;;;;;;5050063;28;20922;-76
2021/10/21 02:27:47;;;;;;;38.70;36.30;;;15.00;99.90;;;;;;5049646;28;20479;-75
2021/10/21 02:30:17;;;;;;;39.30;36.80;;;15.00;99.90;;;;;;5050852;28;20451;-76
2021/10/21 02:32:46;;;;;;;39.50;37.10;;;15.00;99.90;;;;;;5051346;28;20483;-75
2021/10/21 02:35:13;;;;;;;39.93;37.60;;;15.00;99.90;;;;;;5050681;28;20475;-75
2021/10/21 02:37:41;;;;;;;41.10;38.17;;;15.00;99.90;;;;;;5050743;28;20483;-77
2021/10/21 02:40:10;;;;;;;41.10;38.63;;;15.00;99.90;;;;;;5051594;28;20456;-76
2021/10/21 02:42:37;;;;;;;41.93;39.17;;;15.00;99.90;;;;;;5051298;28;20455;-76
2021/10/21 02:45:05;;;;;;;40.67;38.27;;;15.00;99.90;;;;;;5051267;28;20501;-75
2021/10/21 02:47:33;;;;;;;41.00;38.10;;;15.00;99.90;;;;;;5050967;28;20456;-76
2021/10/21 02:49:59;;;;;;;41.67;39.07;;;15.00;99.90;;;;;;5051165;28;20443;-77
2021/10/21 02:52:26;;;;;;;39.87;37.47;;;15.10;99.90;;;;;;5051184;28;20448;-77
2021/10/21 02:54:52;;;;;;;38.60;36.10;;;15.10;99.90;;;;;;5051099;28;20858;-78
2021/10/21 02:57:19;;;;;;;38.27;35.93;;;15.00;99.90;;;;;;5051007;28;20550;-76
2021/10/21 02:59:46;;;;;;;39.20;36.90;;;15.10;99.90;;;;;;5051020;28;20457;-77
2021/10/21 03:02:12;;;;;;;39.97;37.60;;;15.10;99.90;;;;;;5050716;28;20463;-77
2021/10/21 03:04:41;;;;;;;39.57;37.27;;;15.10;99.90;;;;;;5050761;28;20459;-77
2021/10/21 03:07:07;;;;;;;41.63;39.03;;;15.10;99.90;;;;;;5051152;28;20451;-75
2021/10/21 03:09:34;;;;;;;38.70;36.40;;;15.20;99.90;;;;;;5051067;28;20447;-75
2021/10/21 03:12:00;;;;;;;40.73;38.10;;;15.20;99.90;;;;;;5050863;28;20459;-75
2021/10/21 03:14:27;;;;;;;43.07;40.47;;;15.30;99.90;;;;;;5050838;28;20448;-75
2021/10/21 03:16:54;;;;;;;43.40;40.50;;;15.30;99.90;;;;;;5050599;28;20490;-76
2021/10/21 03:19:21;;;;;;;41.43;38.70;;;15.40;99.90;;;;;;5050768;28;20789;-77
2021/10/21 03:21:49;;;;;;;40.47;38.17;;;15.40;99.90;;;;;;5050719;28;20475;-76
2021/10/21 03:24:15;;;;;;;38.67;36.47;;;15.40;99.90;;;;;;5050709;28;20459;-76
2021/10/21 03:26:42;;;;;;;36.80;34.80;;;15.50;99.90;;;;;;5050451;28;20444;-76
2021/10/21 03:29:09;;;;;;;36.70;34.60;;;15.70;99.90;;;;;;5050753;28;20455;-76
2021/10/21 03:31:35;;;;;;;37.07;34.97;;;15.80;99.90;;;;;;5050642;28;20510;-75
2021/10/21 03:34:02;;;;;;;36.40;34.30;;;15.90;99.90;;;;;;5050574;28;20455;-75
2021/10/21 03:36:29;;;;;;;37.00;34.97;;;15.90;99.90;;;;;;5050662;28;20492;-75
2021/10/21 03:38:57;;;;;;;37.47;35.47;;;15.90;99.90;;;;;;5050677;28;20539;-75
2021/10/21 03:41:23;;;;;;;35.60;33.70;;;15.90;99.90;;;;;;5050745;28;20474;-75
2021/10/21 03:43:50;;;;;;;34.77;32.87;;;15.90;99.90;;;;;;5050621;28;20448;-78
2021/10/21 03:46:17;;;;;;;35.07;33.27;;;15.80;99.90;;;;;;5050618;28;20448;-76
2021/10/21 03:48:43;;;;;;;35.37;33.67;;;15.90;99.90;;;;;;5053942;28;20448;-76
2021/10/21 03:51:11;;;;;;;33.13;31.43;;;15.80;99.90;;;;;;5054392;28;20456;-75
2021/10/21 03:53:38;;;;;;;33.07;31.50;;;15.90;99.90;;;;;;5054290;28;20934;-75
2021/10/21 03:56:07;;;;;;;31.80;30.20;;;15.80;99.90;;;;;;5054270;28;20454;-77
2021/10/21 03:58:34;;;;;;;30.50;29.03;;;15.80;99.90;;;;;;5053730;28;20456;-77
2021/10/21 04:01:01;;;;;;;29.70;28.30;;;15.80;99.90;;;;;;5054091;28;20452;-76
2021/10/21 04:03:27;;;;;;;26.47;25.37;;;15.80;99.90;;;;;;5054115;28;20452;-77
2021/10/21 04:05:54;;;;;;;24.00;23.00;;;15.70;99.90;;;;;;5054112;28;20451;-75
2021/10/21 04:08:21;;;;;;;22.53;21.53;;;15.80;99.90;;;;;;5054150;28;20950;-75
2021/10/21 04:10:47;;;;;;;21.57;20.67;;;15.80;99.90;;;;;;5053958;28;20455;-75
2021/10/21 04:13:15;;;;;;;20.40;19.57;;;15.80;99.90;;;;;;5053829;28;20835;-75
2021/10/21 04:15:42;;;;;;;18.00;17.30;;;15.80;99.90;;;;;;5053855;28;20879;-76
2021/10/21 04:18:09;;;;;;;15.23;14.73;;;15.80;99.90;;;;;;5053698;28;20483;-76
2021/10/21 04:20:35;;;;;;;14.80;14.20;;;15.80;99.90;;;;;;5053822;28;20460;-76
2021/10/21 04:23:02;;;;;;;15.00;14.20;;;16.00;99.90;;;;;;5053784;28;20452;-76
2021/10/21 04:25:29;;;;;;;15.50;14.90;;;15.90;99.90;;;;;;5053438;28;20474;-76
2021/10/21 04:27:56;;;;;;;13.83;13.03;;;15.90;99.90;;;;;;5053657;28;20476;-77
2021/10/21 04:30:24;;;;;;;12.20;11.80;;;15.90;99.90;;;;;;5053690;28;20539;-77
2021/10/21 04:32:51;;;;;;;12.87;12.37;;;16.00;99.90;;;;;;5053614;28;20946;-77
2021/10/21 04:35:18;;;;;;;11.43;11.03;;;16.00;99.90;;;;;;5053620;28;20451;-77
2021/10/21 04:37:44;;;;;;;11.37;10.97;;;16.10;99.90;;;;;;5053385;28;20483;-77
2021/10/21 04:40:12;;;;;;;11.77;11.17;;;16.10;99.90;;;;;;5053354;28;20475;-78
2021/10/21 04:42:38;;;;;;;11.30;10.90;;;16.00;99.90;;;;;;5053351;28;20452;-77
2021/10/21 04:45:06;;;;;;;10.33;9.87;;;15.90;99.90;;;;;;5053757;28;20444;-79
2021/10/21 04:47:34;;;;;;;11.00;10.50;;;15.90;99.90;;;;;;5053080;28;20448;-80
2021/10/21 04:50:01;;;;;;;10.97;10.27;;;15.80;99.90;;;;;;5053379;28;20459;-79
2021/10/21 04:52:28;;;;;;;10.53;10.13;;;15.70;99.90;;;;;;5053289;28;20455;-79
2021/10/21 04:54:55;;;;;;;11.00;10.47;;;15.60;99.90;;;;;;5053241;28;20484;-81
2021/10/21 04:57:21;;;;;;;11.60;11.20;;;15.60;99.90;;;;;;5053191;28;20476;-82
2021/10/21 04:59:48;;;;;;;10.30;9.90;;;15.60;99.90;;;;;;5054986;28;20452;-79
2021/10/21 05:02:15;;;;;;;10.87;10.20;;;15.50;99.90;;;;;;5058552;28;20444;-79
2021/10/21 05:04:43;;;;;;;12.53;11.50;;;15.50;99.90;;;;;;5057056;28;20451;-78
2021/10/21 05:07:10;;;;;;;11.97;11.20;;;15.50;99.90;;;;;;5054127;28;20445;-82
2021/10/21 05:09:36;;;;;;;10.87;10.37;;;15.40;99.90;;;;;;5053096;28;20448;-81
2021/10/21 05:12:03;;;;;;;10.80;10.30;;;15.40;99.90;;;;;;5053228;28;20448;-79
2021/10/21 05:14:30;;;;;;;11.93;11.13;;;15.30;99.90;;;;;;5053215;28;20448;-81
2021/10/21 05:16:57;;;;;;;10.57;10.10;;;15.20;99.90;;;;;;5052540;28;21004;-79
2021/10/21 05:19:24;;;;;;;10.53;10.00;;;15.20;99.90;;;;;;5052676;28;20448;-77
2021/10/21 05:21:52;;;;;;;10.43;9.70;;;15.10;99.90;;;;;;5052604;28;20475;-76
2021/10/21 05:24:18;;;;;;;10.63;9.90;;;15.00;99.90;;;;;;5052651;28;20933;-77
2021/10/21 05:26:45;;;;;;;10.87;10.47;;;15.10;99.90;;;;;;5052308;28;20474;-77
2021/10/21 05:29:12;;;;;;;11.50;10.70;;;15.00;99.90;;;;;;5052552;28;20459;-77
2021/10/21 05:31:39;;;;;;;11.30;10.70;;;14.90;99.90;;;;;;5052611;28;20451;-77
2021/10/21 05:34:05;;;;;;;11.33;10.87;;;14.90;99.90;;;;;;5052328;28;20464;-76
2021/10/21 05:36:32;;;;;;;11.63;10.93;;;14.90;99.90;;;;;;5052477;28;20851;-77
2021/10/21 05:39:01;;;;;;;11.67;10.97;;;14.90;99.90;;;;;;5052440;28;20460;-76
2021/10/21 05:41:28;;;;;;;12.03;11.43;;;14.80;99.90;;;;;;5052270;28;20460;-76
2021/10/21 05:43:55;;;;;;;11.13;10.60;;;14.70;99.90;;;;;;5052304;28;20950;-76
2021/10/21 05:46:22;;;;;;;11.53;11.13;;;14.70;99.90;;;;;;5052350;28;20452;-76
2021/10/21 05:48:48;;;;;;;13.10;12.50;;;14.70;99.90;;;;;;5051925;28;20456;-76
2021/10/21 05:51:15;;;;;;;13.80;12.53;;;14.80;99.90;;;;;;5052130;28;20448;-76
2021/10/21 05:53:42;;;;;;;11.10;10.50;;;14.80;99.90;;;;;;5052147;28;20458;-76
2021/10/21 05:56:10;;;;;;;12.40;11.53;;;14.70;99.90;;;;;;5051976;28;20447;-75
2021/10/21 05:58:38;;;;;;;12.13;11.47;;;14.70;99.90;;;;;;5051848;28;20854;-75
2021/10/21 06:01:05;;;;;;;11.73;11.10;;;14.70;99.90;;;;;;5051734;28;20452;-78
2021/10/21 06:03:36;;;;;;;12.70;11.87;;;14.70;99.90;;;;;;5051591;28;20471;-77
2021/10/21 06:06:04;;;;;;;12.10;11.40;;;14.70;99.90;;;;;;5051781;28;20464;-78
2021/10/21 06:08:31;;;;;;;12.97;12.17;;;14.60;99.90;;;;;;5051519;28;20448;-76
2021/10/21 06:10:58;;;;;;;12.13;11.53;;;14.50;99.90;;;;;;5051404;28;21121;-78
2021/10/21 06:13:26;;;;;;;13.73;12.60;;;14.50;99.90;;;;;;5051119;28;20459;-80
2021/10/21 06:15:52;;;;;;;13.23;12.13;;;14.50;99.90;;;;;;5051306;28;20525;-79
2021/10/21 06:18:19;;;;;;;12.20;11.60;;;14.60;99.90;;;;;;5051293;28;20488;-79
2021/10/21 06:20:46;;;;;;;12.10;11.60;;;14.50;99.90;;;;;;5050995;28;20476;-80
2021/10/21 06:23:12;;;;;;;12.90;11.93;;;14.60;99.90;;;;;;5051364;28;20460;-79
2021/10/21 06:25:39;;;;;;;12.77;12.20;;;14.60;99.90;;;;;;5051094;28;20961;-76
2021/10/21 06:28:06;;;;;;;12.53;11.87;;;14.60;99.90;;;;;;5051327;28;20475;-79
2021/10/21 06:30:35;;;;;;;12.33;11.60;;;14.60;99.90;;;;;;5051022;28;20451;-79
2021/10/21 06:33:03;;;;;;;12.40;11.70;;;14.50;99.90;;;;;;5050976;28;20460;-80
2021/10/21 06:35:30;;;;;;;13.47;11.27;;;14.60;99.90;;;;;;5050711;28;20440;-79
2021/10/21 06:37:56;;;;;;;12.03;11.43;;;14.60;99.90;;;;;;5050498;28;20507;-79
2021/10/21 06:40:24;;;;;;;11.93;11.43;;;14.50;99.90;;;;;;5050552;28;21021;-79
2021/10/21 06:42:51;;;;;;;11.80;11.00;;;14.50;99.90;;;;;;5050983;28;20501;-79
2021/10/21 06:45:18;;;;;;;12.60;11.80;;;14.60;99.90;;;;;;5051214;28;20471;-78
2021/10/21 06:47:47;;;;;;;12.10;11.40;;;14.60;99.90;;;;;;5050967;28;20452;-78
2021/10/21 06:50:14;;;;;;;12.37;11.23;;;14.60;99.90;;;;;;5050905;28;21173;-78
2021/10/21 06:52:43;;;;;;;11.00;10.37;;;14.70;99.90;;;;;;5050602;28;20458;-78
2021/10/21 06:55:11;;;;;;;12.93;12.13;;;15.00;99.90;;;;;;5050697;28;20487;-77
2021/10/21 06:57:49;;;;;;;12.47;11.40;;;15.50;99.90;;;;;;5050866;28;20523;-78
2021/10/21 07:00:17;;;;;;;12.70;11.67;;;15.50;99.60;;;;;;5050731;28;20803;-76
2021/10/21 07:02:43;;;;;;;11.90;11.03;;;15.60;99.40;;;;;;5050872;28;20487;-77
2021/10/21 07:05:13;;;;;;;11.97;11.17;;;15.80;99.40;;;;;;5050946;28;20452;-77
2021/10/21 07:07:40;;;;;;;12.13;11.33;;;16.00;98.30;;;;;;5050657;28;20467;-74
2021/10/21 07:10:08;;;;;;;12.93;12.30;;;16.40;98.40;;;;;;5051113;28;20497;-79
2021/10/21 07:12:35;;;;;;;11.63;11.13;;;16.90;97.20;;;;;;5050619;28;20460;-75
2021/10/21 07:15:02;;;;;;;13.40;12.40;;;17.20;95.40;;;;;;5050700;28;20973;-82
2021/10/21 07:17:29;;;;;;;12.87;12.20;;;17.30;95.80;;;;;;5050444;28;20865;-78
2021/10/21 07:19:56;;;;;;;12.30;11.60;;;16.90;95.30;;;;;;5050609;28;20985;-79
2021/10/21 07:22:24;;;;;;;11.80;11.30;;;16.40;96.10;;;;;;5051847;28;21010;-79
2021/10/21 07:24:51;;;;;;;11.77;11.17;;;16.30;96.20;;;;;;5054894;28;20458;-81
2021/10/21 07:27:18;;;;;;;12.03;11.13;;;16.40;96.30;;;;;;5054625;28;20566;-84
2021/10/21 07:29:45;;;;;;;12.27;11.53;;;16.30;96.90;;;;;;5054947;28;20439;-80
2021/10/21 07:32:12;;;;;;;11.60;11.20;;;16.10;96.60;;;;;;5054559;28;21211;-88
2021/10/21 07:34:42;;;;;;;11.77;11.00;;;16.00;97.30;;;;;;5054469;28;20448;-83
2021/10/21 07:37:17;;;;;;;11.50;11.10;;;15.90;97.00;;;;;;5054609;28;20486;-81
2021/10/21 07:39:45;;;;;;;11.83;11.03;;;15.90;96.80;;;;;;5051068;28;20517;-80
2021/10/21 07:42:12;;;;;;;12.67;11.90;;;16.00;97.30;;;;;;5054318;28;20539;-80
2021/10/21 07:44:41;;;;;;;11.33;10.70;;;16.00;96.80;;;;;;5054443;28;20458;-80
2021/10/21 07:47:08;;;;;;;12.40;11.50;;;16.10;97.00;;;;;;5054289;28;20448;-80
2021/10/21 07:49:35;;;;;;;11.00;10.40;;;16.20;96.40;;;;;;5054251;28;20984;-79
2021/10/21 07:52:02;;;;;;;10.77;10.20;;;16.40;96.20;;;;;;5053986;28;20451;-79
2021/10/21 07:54:30;;;;;;;10.67;10.07;;;16.40;96.40;;;;;;5054123;28;20448;-79
2021/10/21 07:56:58;;;;;;;10.50;9.93;;;16.30;96.40;;;;;;5054115;28;20452;-79
2021/10/21 07:59:26;;;;;;;10.70;9.97;;;16.20;96.00;;;;;;5053893;28;20483;-78
2021/10/21 08:01:53;;;;;;;11.30;10.60;;;16.10;95.90;;;;;;5054108;28;20452;-79
2021/10/21 08:04:19;;;;;;;11.10;10.60;;;16.20;95.70;;;;;;5054006;28;20459;-79
2021/10/21 08:06:48;;;;;;;10.77;10.27;;;17.00;94.80;;;;;;5053879;28;20456;-79
2021/10/21 08:09:15;;;;;;;11.33;10.63;;;17.50;93.60;;;;;;5053881;28;20488;-80
2021/10/21 08:11:42;;;;;;;13.00;12.40;;;17.80;92.90;;;;;;5053621;28;20486;-81
2021/10/21 08:14:11;;;;;;;10.37;9.83;;;18.20;92.30;;;;;;5053839;28;20460;-80
2021/10/21 08:16:38;;;;;;;11.00;10.30;;;18.30;91.20;;;;;;5053698;28;20452;-79
2021/10/21 08:19:05;;;;;;;11.20;10.47;;;18.20;91.60;;;;;;5054898;28;20503;-81
2021/10/21 08:21:32;;;;;;;10.90;10.50;;;18.20;90.90;;;;;;5053733;28;20510;-82
2021/10/21 08:23:59;;;;;;;10.27;9.90;;;18.50;90.50;;;;;;5053715;28;20444;-82
2021/10/21 08:26:27;;;;;;;11.77;11.17;;;19.10;89.60;;;;;;5053855;28;20448;-82
2021/10/21 08:28:54;;;;;;;10.57;9.90;;;18.80;89.60;;;;;;5053475;28;20447;-83
2021/10/21 08:31:22;;;;;;;11.30;10.57;;;19.00;89.30;;;;;;5053571;28;20448;-82
2021/10/21 08:33:49;;;;;;;10.50;10.03;;;19.50;88.10;;;;;;5052176;28;20440;-84
2021/10/21 08:36:18;;;;;;;10.47;10.07;;;19.60;86.10;;;;;;5053382;28;20452;-83
2021/10/21 08:38:45;;;;;;;11.60;11.20;;;19.60;87.80;;;;;;5052969;28;20488;-82
2021/10/21 08:41:13;;;;;;;17.83;11.00;;;19.90;85.80;;;;;;5053527;28;20950;-83
2021/10/21 08:43:40;;;;;;;11.03;10.53;;;19.80;85.90;;;;;;5053572;28;20452;-84
2021/10/21 08:46:08;;;;;;;10.83;10.33;;;20.00;84.10;;;;;;5053378;28;20452;-82
2021/10/21 08:48:40;;;;;;;11.07;10.60;;;19.50;86.00;;;;;;5053208;28;20448;-84
2021/10/21 08:51:07;;;;;;;10.63;10.23;;;19.50;85.60;;;;;;5053306;28;20480;-84
2021/10/21 08:53:35;;;;;;;11.60;11.10;;;19.00;85.90;;;;;;5053276;28;20447;-85
2021/10/21 08:56:04;;;;;;;11.47;10.77;;;19.50;86.60;;;;;;5053493;28;20815;-82
2021/10/21 08:58:31;;;;;;;10.80;10.50;;;19.80;86.30;;;;;;5053334;28;20491;-84
2021/10/21 09:01:03;;;;;;;10.77;10.20;;;19.50;86.90;;;;;;5053634;28;20456;-83
2021/10/21 09:03:43;;;;;;;10.47;10.07;;;19.30;88.90;;;;;;5053540;28;20456;-84
2021/10/21 09:06:22;;;;;;;10.07;9.77;;;18.40;90.20;;;;;;5054946;28;20475;-82
2021/10/21 09:08:49;;;;;;;11.37;10.67;;;18.30;90.70;;;;;;5061029;28;20440;-83
2021/10/21 09:11:20;;;;;;;12.10;10.90;;;18.60;90.60;;;;;;5058903;28;20452;-83
2021/10/21 09:13:48;;;;;;;10.77;10.33;;;19.20;90.10;;;;;;5055697;28;20543;-82
2021/10/21 09:16:19;;;;;;;11.23;10.70;;;18.80;90.40;;;;;;5053197;28;20566;-81
2021/10/21 09:18:48;;;;;;;13.73;10.80;;;18.20;91.00;;;;;;5052704;28;20487;-82
2021/10/21 09:21:30;;;;;;;10.73;10.33;;;18.70;91.00;;;;;;5052647;28;20915;-83
2021/10/21 09:23:57;;;;;;;10.80;10.20;;;19.30;90.10;;;;;;5052509;28;21010;-83
2021/10/21 09:26:24;;;;;;;10.40;10.10;;;19.50;88.10;;;;;;5052197;28;20448;-82
2021/10/21 09:28:51;;;;;;;10.60;10.30;;;18.80;90.00;;;;;;5052446;28;20992;-83
2021/10/21 09:31:18;;;;;;;10.50;10.10;;;18.90;89.20;;;;;;5052595;28;20453;-81
2021/10/21 09:33:48;;;;;;;10.10;9.80;;;19.00;89.90;;;;;;5052428;28;20447;-83
2021/10/21 09:36:20;;;;;;;11.37;10.97;;;19.60;88.50;;;;;;5052342;28;20464;-82
2021/10/21 09:38:51;;;;;;;11.13;10.73;;;20.00;87.00;;;;;;5052296;28;20471;-82
2021/10/21 09:41:19;;;;;;;9.90;9.60;;;20.40;86.70;;;;;;5052492;28;20550;-83
2021/10/21 09:43:46;;;;;;;9.87;9.57;;;20.80;84.50;;;;;;5055094;28;20440;-80
2021/10/21 09:46:38;;;;;;;11.17;10.77;;;19.70;87.00;;;;;;5053750;28;20444;-80
2021/10/21 09:49:26;;;;;;;10.30;10.00;;;19.60;87.80;;;;;;5054061;28;20454;-80
2021/10/21 09:51:53;;;;;;;10.73;10.33;;;19.30;88.10;;;;;;5052256;28;20448;-81
2021/10/21 09:54:20;;;;;;;10.10;9.80;;;20.00;87.70;;;;;;5052213;28;20459;-81
2021/10/21 09:56:57;;;;;;;10.30;9.90;;;20.30;85.30;;;;;;5051860;28;20443;-81
2021/10/21 09:59:25;;;;;;;10.73;10.43;;;20.10;86.20;;;;;;5051866;28;20483;-81
2021/10/21 10:01:56;;;;;;;11.00;10.70;;;20.50;83.60;;;;;;5051050;28;20953;-81
2021/10/21 10:04:26;;;;;;;10.47;10.07;;;20.20;81.70;;;;;;5051103;28;20437;-80
2021/10/21 10:06:58;;;;;;;10.63;10.33;;;19.60;80.00;;;;;;5051200;28;20436;-81
2021/10/21 10:09:30;;;;;;;10.20;9.80;;;19.10;79.20;;;;;;5051014;28;20440;-81
2021/10/21 10:11:58;;;;;;;9.70;9.40;;;19.00;79.80;;;;;;5051383;28;20461;-81
2021/10/21 10:14:26;;;;;;;9.80;9.50;;;18.90;79.60;;;;;;5051292;28;20456;-81
2021/10/21 10:16:52;;;;;;;10.83;10.27;;;19.10;79.30;;;;;;5051462;28;20451;-80
2021/10/21 10:19:19;;;;;;;10.40;10.10;;;19.40;78.80;;;;;;5051180;28;20476;-81
2021/10/21 10:21:51;;;;;;;10.47;10.07;;;19.80;78.40;;;;;;5050961;28;20471;-81
2021/10/21 10:24:19;;;;;;;10.70;10.30;;;19.90;76.00;;;;;;5051540;28;20798;-81
2021/10/21 10:26:47;;;;;;;10.37;9.97;;;19.70;73.80;;;;;;5051296;28;20475;-80
2021/10/21 10:29:14;;;;;;;11.07;10.57;;;19.40;74.90;;;;;;5051584;28;20537;-81
2021/10/21 10:31:42;;;;;;;10.00;9.70;;;19.30;74.50;;;;;;5051461;28;20447;-81
2021/10/21 10:34:30;;;;;;;10.20;9.63;;;19.80;74.30;;;;;;5051096;28;20460;-80
2021/10/21 10:37:36;;;;;;;10.37;9.80;;;19.40;74.50;;;;;;5051305;28;20475;-80
2021/10/21 10:40:04;;;;;;;10.90;10.40;;;19.60;74.00;;;;;;5051105;28;20495;-79
2021/10/21 10:42:59;;;;;;;11.80;11.20;;;19.80;73.20;;;;;;5051247;28;20452;-85
2021/10/21 10:45:46;;;;;;;11.00;10.60;;;20.20;72.90;;;;;;5051329;28;20961;-78
2021/10/21 10:48:14;;;;;;;11.10;10.70;;;20.30;71.30;;;;;;5049594;28;20459;-79
2021/10/21 10:50:56;;;;;;;11.33;10.83;;;20.30;72.80;;;;;;5051023;28;20447;-79
2021/10/21 10:53:44;;;;;;;11.37;10.97;;;20.70;71.80;;;;;;5051317;28;20444;-79
2021/10/21 10:56:40;;;;;;;11.60;11.10;;;21.60;70.90;;;;;;5050827;28;20830;-79
2021/10/21 10:59:21;;;;;;;11.73;11.10;;;22.30;69.10;;;;;;5051074;28;20480;-80
2021/10/21 11:01:50;;;;;;;11.23;10.83;;;21.80;70.20;;;;;;5051085;28;20448;-80
2021/10/21 11:04:57;;;;;;;11.20;10.80;;;21.90;69.70;;;;;;5051063;28;20448;-79
2021/10/21 11:07:25;;;;;;;11.60;11.20;;;22.00;68.30;;;;;;4950763;29;20456;-79
2021/10/21 11:09:55;;;;;;;12.47;11.97;;;21.60;70.50;;;;;;5035007;28;20506;-79
2021/10/21 11:12:23;;;;;;;11.50;11.07;;;21.40;70.00;;;;;;5051017;28;20451;-80
2021/10/21 11:14:54;;;;;;;11.60;11.10;;;22.20;69.60;;;;;;5050860;28;20471;-79
2021/10/21 11:17:41;;;;;;;12.37;11.70;;;22.50;67.40;;;;;;5050881;28;20489;-79
2021/10/21 11:20:38;;;;;;;12.07;11.57;;;23.10;67.10;;;;;;5050733;28;20842;-79
2021/10/21 11:23:06;;;;;;;11.40;10.90;;;21.70;67.30;;;;;;5050889;28;20525;-80
2021/10/21 11:25:37;;;;;;;11.13;10.77;;;20.90;68.20;;;;;;5051008;28;20455;-79
2021/10/21 11:28:04;;;;;;;11.73;11.27;;;21.40;68.40;;;;;;5050689;28;20487;-79
2021/10/21 11:30:33;;;;;;;12.47;11.97;;;21.70;67.50;;;;;;5050593;28;20454;-79
2021/10/21 11:33:01;;;;;;;11.87;11.40;;;22.60;65.80;;;;;;5050235;28;20463;-80
2021/10/21 11:35:29;;;;;;;12.70;12.07;;;23.30;63.10;;;;;;5050299;28;20505;-79
2021/10/21 11:37:58;;;;;;;12.00;11.60;;;22.90;61.60;;;;;;5050428;28;20464;-79
2021/10/21 11:40:27;;;;;;;12.00;11.50;;;22.60;63.00;;;;;;5050177;28;20885;-78
2021/10/21 11:48:28;;;;;;;12.03;11.40;;;23.10;60.50;;;;;;5045815;28;20432;-79
2021/10/21 11:50:55;;;;;;;11.67;11.07;;;22.30;61.20;;;;;;5050318;28;20989;-78
2021/10/21 11:53:23;;;;;;;11.53;11.00;;;20.90;64.30;;;;;;5050705;28;20440;-79
2021/10/21 11:55:52;;;;;;;11.10;10.50;;;20.00;65.30;;;;;;5050492;28;20447;-79
2021/10/21 11:58:25;;;;;;;10.97;10.43;;;19.10;68.00;;;;;;5047360;28;20452;-80
2021/10/21 12:00:55;;;;;;;11.60;11.10;;;19.40;68.80;;;;;;5028599;28;20441;-79
2021/10/21 12:03:30;;;;;;;12.20;11.70;;;19.80;68.10;;;;;;5030656;28;20448;-80
2021/10/21 12:05:58;;;;;;;11.00;10.40;;;19.60;67.50;;;;;;5030506;28;20456;-80
2021/10/21 12:08:25;;;;;;;11.13;10.73;;;19.00;69.60;;;;;;5031624;28;20453;-79
2021/10/21 12:10:56;;;;;;;11.40;11.00;;;18.60;71.00;;;;;;5034298;28;20437;-79
2021/10/21 12:13:27;;;;;;;11.53;11.03;;;18.00;72.30;;;;;;5034066;28;20447;-81
2021/10/21 12:15:57;;;;;;;11.27;10.87;;;17.50;73.70;;;;;;5034030;28;20441;-81
2021/10/21 12:18:26;;;;;;;10.77;10.27;;;17.20;75.50;;;;;;5034063;28;20479;-81
2021/10/21 12:20:54;;;;;;;11.87;11.00;;;17.00;75.50;;;;;;5033919;28;20843;-80
2021/10/21 12:23:27;;;;;;;10.33;9.93;;;17.00;74.80;;;;;;5034261;28;20955;-82
2021/10/21 12:25:56;;;;;;;11.67;11.10;;;17.70;73.30;;;;;;5034210;28;20467;-80
2021/10/21 12:28:45;;;;;;;11.13;10.63;;;17.80;73.00;;;;;;5018069;28;20485;-82
2021/10/21 12:31:21;;;;;;;11.30;11.00;;;18.00;73.40;;;;;;5014033;28;20469;-81
2021/10/21 12:33:58;;;;;;;11.90;11.40;;;18.50;72.80;;;;;;5013722;28;20966;-83
2021/10/21 12:36:27;;;;;;;11.43;11.03;;;19.80;70.70;;;;;;5014081;28;20476;-82
2021/10/21 12:39:01;;;;;;;11.83;11.40;;;20.50;69.40;;;;;;5014234;28;20984;-83
2021/10/21 12:41:27;;;;;;;11.50;11.00;;;21.10;67.60;;;;;;5013955;28;20465;-82